Time;durP1;ratioP1;P1;durP2;ratioP2;P2;SDS_P1;SDS_P2;PMS_P1;PMS_P2;Temp;Humidity;BMP_temperature;BMP_pressure;BME280_temperature;BME280_humidity;BME280_pressure;Samples;Min_cycle;Max_cycle;Signal;HPM_P1;HPM_P2
2023/09/21 00:01:19;;;;;;;5.20;2.53;;;;;;;17.53;75.81;100039.91;5026629;28;20407;-75
2023/09/21 00:03:48;;;;;;;13.77;2.67;;;;;;;17.52;76.10;100048.91;5010222;28;20100;-77
2023/09/21 00:06:18;;;;;;;5.40;2.92;;;;;;;17.49;76.66;100043.84;5012428;28;20040;-80
2023/09/21 00:08:48;;;;;;;5.13;2.90;;;;;;;17.46;76.39;100038.81;4990624;28;20073;-77
2023/09/21 00:11:20;;;;;;;5.28;2.90;;;;;;;17.46;76.48;100041.47;5008621;28;20141;-76
2023/09/21 00:13:49;;;;;;;6.20;2.30;;;;;;;17.42;76.91;100034.78;5023257;28;20149;-75
2023/09/21 00:16:18;;;;;;;5.55;2.65;;;;;;;17.39;77.10;100027.94;5023883;28;20099;-75
2023/09/21 00:18:50;;;;;;;5.72;2.60;;;;;;;17.38;77.03;100031.59;4992999;28;20425;-78
2023/09/21 00:21:18;;;;;;;4.43;2.38;;;;;;;17.36;77.63;100033.56;5009042;28;20096;-77
2023/09/21 00:23:47;;;;;;;4.00;2.30;;;;;;;17.34;77.34;100029.41;5015949;28;20095;-75
2023/09/21 00:26:16;;;;;;;7.65;2.78;;;;;;;17.32;77.62;100026.84;5030423;28;20107;-84
2023/09/21 00:28:43;;;;;;;10.63;3.35;;;;;;;17.30;77.78;100030.66;5008449;28;20606;-78
2023/09/21 00:31:13;;;;;;;3.35;2.47;;;;;;;17.28;78.65;100032.63;4987119;28;20405;-76
2023/09/21 00:33:42;;;;;;;8.10;3.00;;;;;;;17.26;78.74;100026.63;5007593;28;20392;-77
2023/09/21 00:36:13;;;;;;;6.28;2.60;;;;;;;17.24;78.65;100025.91;5007951;28;20052;-78
2023/09/21 00:38:43;;;;;;;4.65;3.00;;;;;;;17.21;79.11;100019.09;5019357;28;20065;-80
2023/09/21 00:41:18;;;;;;;5.65;2.80;;;;;;;17.18;79.65;100019.38;4992012;28;20050;-79
2023/09/21 00:43:47;;;;;;;5.85;2.75;;;;;;;17.14;79.56;100018.81;5008144;28;20140;-73
2023/09/21 00:46:17;;;;;;;6.40;2.55;;;;;;;17.12;79.63;100012.00;5023271;28;20180;-73
2023/09/21 00:48:45;;;;;;;7.65;2.80;;;;;;;17.09;79.89;100007.78;5003882;28;20144;-74
2023/09/21 00:51:13;;;;;;;6.07;2.67;;;;;;;17.04;80.38;100007.41;5024647;28;20056;-75
2023/09/21 00:53:44;;;;;;;4.65;2.90;;;;;;;17.02;80.45;100004.06;5024548;28;20045;-76
2023/09/21 00:56:17;;;;;;;4.60;2.83;;;;;;;16.99;80.56;100006.19;5026632;28;20054;-76
2023/09/21 00:58:47;;;;;;;4.78;2.25;;;;;;;16.96;81.07;100012.63;5007320;28;20049;-75
2023/09/21 01:01:22;;;;;;;4.13;2.42;;;;;;;16.93;80.99;100000.47;5007287;28;20073;-72
2023/09/21 01:03:53;;;;;;;5.65;2.67;;;;;;;16.91;81.36;100006.91;5008561;28;20105;-74
2023/09/21 01:06:23;;;;;;;6.22;2.42;;;;;;;16.88;81.50;100004.53;5007423;28;20408;-73
2023/09/21 01:08:51;;;;;;;6.22;2.63;;;;;;;16.84;81.81;100003.13;5007223;28;20073;-74
2023/09/21 01:11:20;;;;;;;5.30;2.90;;;;;;;16.83;82.28;99997.00;5009296;28;20049;-73
2023/09/21 01:13:48;;;;;;;9.23;3.10;;;;;;;16.81;82.33;100003.44;5021328;28;20536;-73
2023/09/21 01:16:17;;;;;;;5.10;2.20;;;;;;;16.79;82.78;100008.06;5021667;28;20056;-74
2023/09/21 01:18:46;;;;;;;6.00;3.10;;;;;;;16.76;83.07;99995.91;5020194;28;20140;-75
2023/09/21 01:21:25;;;;;;;5.18;2.25;;;;;;;16.74;82.78;99994.38;5024858;28;20449;-75
2023/09/21 01:23:53;;;;;;;5.38;3.03;;;;;;;16.71;83.53;100000.78;4986125;28;20107;-77
2023/09/21 01:26:22;;;;;;;8.35;2.95;;;;;;;16.67;83.39;99992.28;5010159;28;20525;-76
2023/09/21 01:28:51;;;;;;;5.80;2.40;;;;;;;16.65;83.82;100004.84;5004645;28;20524;-76
2023/09/21 01:31:22;;;;;;;3.33;2.40;;;;;;;16.62;83.39;99993.69;5007515;28;20045;-75
2023/09/21 01:33:50;;;;;;;6.15;2.92;;;;;;;16.58;84.12;99989.66;5010812;28;20100;-76
2023/09/21 01:36:23;;;;;;;5.07;2.78;;;;;;;16.54;84.06;99985.59;4992001;28;20535;-76
2023/09/21 01:38:52;;;;;;;5.75;2.53;;;;;;;16.50;83.91;99982.38;5027914;28;20089;-73
2023/09/21 01:41:21;;;;;;;4.97;2.50;;;;;;;16.51;84.51;99977.91;5029593;28;20083;-75
2023/09/21 01:43:49;;;;;;;4.28;2.28;;;;;;;16.46;84.59;99976.53;5006046;28;20085;-75
2023/09/21 01:46:19;;;;;;;5.45;2.67;;;;;;;16.45;84.51;99974.00;5028435;28;20077;-74
2023/09/21 01:48:46;;;;;;;5.05;2.83;;;;;;;16.40;84.41;99969.13;5011416;28;20061;-74
2023/09/21 01:51:16;;;;;;;8.73;2.80;;;;;;;16.39;84.38;99966.59;5013700;28;20132;-74
2023/09/21 01:53:45;;;;;;;4.40;2.55;;;;;;;16.37;85.11;99973.88;5012104;28;20088;-74
2023/09/21 01:56:15;;;;;;;7.18;2.67;;;;;;;16.35;86.13;99966.06;4995715;28;20054;-74
2023/09/21 01:58:43;;;;;;;6.82;2.88;;;;;;;16.33;85.95;99967.19;5021929;28;20500;-74
2023/09/21 02:01:10;;;;;;;5.80;3.03;;;;;;;16.32;85.68;99966.34;5014377;28;20123;-75
2023/09/21 02:03:39;;;;;;;6.22;2.67;;;;;;;16.31;86.58;99969.16;5029601;28;20044;-79
2023/09/21 02:06:06;;;;;;;5.85;2.75;;;;;;;16.29;86.70;99965.78;5012114;28;20080;-75
2023/09/21 02:08:34;;;;;;;5.05;2.65;;;;;;;16.27;86.64;99962.47;5012936;28;20053;-74
2023/09/21 02:11:01;;;;;;;6.88;3.08;;;;;;;16.25;86.79;99957.28;5001373;28;20050;-74
2023/09/21 02:13:29;;;;;;;7.78;2.90;;;;;;;16.22;87.35;99954.91;5013298;28;20095;-74
2023/09/21 02:15:56;;;;;;;6.85;2.88;;;;;;;16.22;86.98;99954.91;5012290;28;20092;-74
2023/09/21 02:18:23;;;;;;;5.95;3.17;;;;;;;16.19;87.31;99950.72;5028406;28;20073;-79
2023/09/21 02:20:54;;;;;;;3.45;2.10;;;;;;;16.16;87.47;99945.69;4997355;28;20084;-79
2023/09/21 02:23:23;;;;;;;5.53;2.47;;;;;;;16.15;87.57;99941.34;5025074;28;20471;-77
2023/09/21 02:25:55;;;;;;;4.93;2.63;;;;;;;16.13;87.64;99940.69;5015293;28;20069;-78
2023/09/21 02:28:23;;;;;;;3.83;2.67;;;;;;;16.13;88.01;99943.34;5013731;28;20042;-77
2023/09/21 02:30:51;;;;;;;3.80;2.45;;;;;;;16.10;88.06;99942.78;5010127;28;20627;-77
2023/09/21 02:33:22;;;;;;;4.63;2.95;;;;;;;16.07;88.13;99945.69;5007618;28;20135;-75
2023/09/21 02:35:50;;;;;;;7.25;2.63;;;;;;;16.05;88.57;99935.25;5028199;28;20500;-74
2023/09/21 02:38:20;;;;;;;4.20;2.63;;;;;;;16.04;88.49;99938.03;5022258;28;20125;-76
2023/09/21 02:40:48;;;;;;;11.45;2.88;;;;;;;16.03;88.91;99936.34;5015334;28;20060;-77
2023/09/21 02:43:16;;;;;;;6.20;2.28;;;;;;;16.02;88.61;99937.31;5026011;28;20081;-75
2023/09/21 02:45:45;;;;;;;3.45;2.42;;;;;;;16.02;88.78;99924.88;5013315;28;20124;-77
2023/09/21 02:48:15;;;;;;;5.55;2.45;;;;;;;15.99;89.06;99927.84;5024121;28;20057;-77
2023/09/21 02:50:49;;;;;;;9.20;3.92;;;;;;;15.95;88.95;99927.28;5022572;28;20133;-76
2023/09/21 02:53:16;;;;;;;4.28;2.80;;;;;;;15.95;89.26;99929.13;5026052;28;20128;-78
2023/09/21 02:55:45;;;;;;;7.32;3.05;;;;;;;15.92;89.26;99927.56;5008821;28;20574;-76
2023/09/21 02:58:16;;;;;;;6.38;2.42;;;;;;;15.91;89.51;99925.06;5000862;28;20061;-79
2023/09/21 03:00:45;;;;;;;4.93;2.92;;;;;;;15.89;89.73;99921.69;5011748;28;20100;-83
2023/09/21 03:03:15;;;;;;;4.80;2.97;;;;;;;15.87;89.73;99923.66;5014275;28;20046;-84
2023/09/21 03:05:47;;;;;;;3.97;2.28;;;;;;;15.84;89.86;99923.94;5027628;28;20501;-77
2023/09/21 03:08:17;;;;;;;3.88;2.92;;;;;;;15.80;90.49;99912.75;5013141;28;20037;-76
2023/09/21 03:10:49;;;;;;;6.22;2.67;;;;;;;15.79;90.21;99902.28;5010018;28;20123;-74
2023/09/21 03:13:18;;;;;;;4.78;2.60;;;;;;;15.82;90.39;99910.00;5020359;28;20128;-73
2023/09/21 03:15:58;;;;;;;5.63;2.80;;;;;;;15.81;90.08;99908.31;5012908;28;20073;-74
2023/09/21 03:18:27;;;;;;;5.50;2.70;;;;;;;15.78;89.94;99903.28;5026701;28;20517;-75
2023/09/21 03:20:56;;;;;;;7.65;2.53;;;;;;;15.74;89.98;99897.41;5023845;28;20049;-75
2023/09/21 03:23:25;;;;;;;4.72;2.55;;;;;;;15.75;90.56;99899.09;5009416;28;20084;-76
2023/09/21 03:25:54;;;;;;;6.60;2.58;;;;;;;15.76;90.74;99890.16;4993609;28;20333;-75
2023/09/21 03:28:24;;;;;;;4.03;2.38;;;;;;;15.77;90.05;99893.66;5023868;28;20049;-74
2023/09/21 03:30:56;;;;;;;7.15;2.80;;;;;;;15.79;90.06;99897.00;5010495;28;20057;-75
2023/09/21 03:33:24;;;;;;;5.00;2.80;;;;;;;15.80;89.74;99888.03;4972622;28;20088;-76
2023/09/21 03:35:51;;;;;;;5.47;2.58;;;;;;;15.79;89.80;99879.25;4995981;28;20451;-75
2023/09/21 03:38:20;;;;;;;4.53;2.75;;;;;;;15.78;89.72;99874.94;4980515;28;20132;-75
2023/09/21 03:40:48;;;;;;;5.88;2.50;;;;;;;15.78;89.69;99868.78;5009900;28;20108;-76
2023/09/21 03:43:18;;;;;;;5.55;2.78;;;;;;;15.78;89.39;99868.78;5024246;28;20505;-77
2023/09/21 03:45:46;;;;;;;5.70;2.53;;;;;;;15.77;89.33;99869.78;5013401;28;20053;-75
2023/09/21 03:48:16;;;;;;;4.88;3.03;;;;;;;15.74;89.46;99878.00;5023507;28;20753;-80
2023/09/21 03:50:47;;;;;;;4.65;2.60;;;;;;;15.74;89.69;99873.53;5011536;28;20069;-77
2023/09/21 03:53:15;;;;;;;4.40;2.30;;;;;;;15.73;89.47;99868.38;4995835;28;20135;-72
2023/09/21 03:55:43;;;;;;;5.25;2.60;;;;;;;15.73;89.48;99868.38;5025742;28;20076;-73
2023/09/21 03:58:12;;;;;;;6.60;2.72;;;;;;;15.75;89.59;99864.59;5028448;28;20090;-74
2023/09/21 04:00:41;;;;;;;7.28;3.00;;;;;;;15.76;88.92;99866.28;5012072;28;20048;-74
2023/09/21 04:03:10;;;;;;;5.93;2.95;;;;;;;15.76;89.14;99868.94;5013059;28;20057;-73
2023/09/21 04:05:40;;;;;;;6.65;2.63;;;;;;;15.79;89.16;99868.63;5017060;28;20531;-73
2023/09/21 04:08:08;;;;;;;5.18;3.00;;;;;;;15.79;89.01;99857.19;5010591;28;20447;-73
2023/09/21 04:10:36;;;;;;;7.82;2.92;;;;;;;15.79;89.07;99862.50;4992234;28;20103;-74
2023/09/21 04:13:05;;;;;;;6.05;3.15;;;;;;;15.76;88.81;99857.47;5011417;28;20417;-74
2023/09/21 04:15:33;;;;;;;4.75;2.75;;;;;;;15.73;89.08;99858.59;5025041;28;20088;-74
2023/09/21 04:18:02;;;;;;;7.20;2.70;;;;;;;15.70;89.33;99851.75;5028745;28;20091;-76
2023/09/21 04:20:34;;;;;;;4.28;2.88;;;;;;;15.67;89.39;99852.03;5008266;28;20069;-78
2023/09/21 04:23:02;;;;;;;4.90;2.70;;;;;;;15.65;89.45;99855.81;5009281;28;20042;-71
2023/09/21 04:25:30;;;;;;;7.75;3.42;;;;;;;15.63;89.99;99855.09;5012487;28;20057;-72
2023/09/21 04:27:59;;;;;;;7.85;3.30;;;;;;;15.63;89.52;99853.28;5034044;28;20057;-79
2023/09/21 04:30:26;;;;;;;5.65;2.63;;;;;;;15.62;89.54;99843.63;5014256;28;20057;-77
2023/09/21 04:32:55;;;;;;;7.03;2.95;;;;;;;15.60;89.79;99850.88;5006714;28;20140;-78
2023/09/21 04:35:23;;;;;;;7.63;3.15;;;;;;;15.56;90.29;99846.84;5010036;28;20132;-77
2023/09/21 04:37:58;;;;;;;5.40;2.80;;;;;;;15.51;90.31;99845.59;5024201;28;20037;-76
2023/09/21 04:40:26;;;;;;;4.57;2.75;;;;;;;15.50;90.42;99846.59;5024341;28;20041;-75
2023/09/21 04:42:54;;;;;;;4.68;2.80;;;;;;;15.49;90.34;99845.75;5026351;28;20091;-76
2023/09/21 04:45:22;;;;;;;7.53;3.08;;;;;;;15.49;90.53;99844.88;5006743;28;20088;-78
2023/09/21 04:47:53;;;;;;;5.07;3.47;;;;;;;15.51;90.63;99841.13;5026934;28;20060;-77
2023/09/21 04:50:21;;;;;;;4.55;2.72;;;;;;;15.49;90.42;99839.59;5005427;28;20578;-76
2023/09/21 04:52:49;;;;;;;7.10;3.10;;;;;;;15.49;90.63;99844.88;5005665;28;20065;-76
2023/09/21 04:55:17;;;;;;;9.38;3.85;;;;;;;15.49;90.62;99856.38;5007537;28;20139;-76
2023/09/21 04:57:45;;;;;;;4.90;2.67;;;;;;;15.47;90.85;99847.69;5024998;28;20570;-75
2023/09/21 05:00:14;;;;;;;4.25;2.90;;;;;;;15.47;90.61;99847.69;5025076;28;20099;-76
2023/09/21 05:02:44;;;;;;;5.05;2.97;;;;;;;15.48;90.80;99843.22;5008818;28;20076;-76
2023/09/21 05:05:14;;;;;;;5.13;2.92;;;;;;;15.48;90.79;99852.00;4990439;28;20057;-77
2023/09/21 05:07:44;;;;;;;6.80;3.47;;;;;;;15.50;90.68;99843.94;5022772;28;20473;-76
2023/09/21 05:10:14;;;;;;;4.68;3.35;;;;;;;15.51;90.60;99846.44;5019973;28;20523;-76
2023/09/21 05:12:42;;;;;;;6.15;3.22;;;;;;;15.52;90.78;99840.16;4993438;28;20041;-75
2023/09/21 05:15:14;;;;;;;11.57;3.72;;;;;;;15.55;90.31;99839.03;4994136;28;20076;-75
2023/09/21 05:17:43;;;;;;;6.75;3.35;;;;;;;15.57;90.34;99840.56;5020563;28;20168;-75
2023/09/21 05:20:11;;;;;;;6.85;3.30;;;;;;;15.61;90.47;99838.47;5007542;28;20084;-76
2023/09/21 05:22:39;;;;;;;10.23;3.97;;;;;;;15.63;90.41;99836.53;5009691;28;20445;-76
2023/09/21 05:25:07;;;;;;;5.25;3.25;;;;;;;15.67;89.89;99843.25;5025466;28;20145;-77
2023/09/21 05:27:36;;;;;;;7.30;3.00;;;;;;;15.69;89.64;99839.47;5009847;28;20115;-77
2023/09/21 05:30:05;;;;;;;5.90;3.45;;;;;;;15.73;89.44;99836.53;5005100;28;20141;-76
2023/09/21 05:32:33;;;;;;;6.47;3.33;;;;;;;15.75;89.42;99831.91;5009414;28;20447;-76
2023/09/21 05:35:05;;;;;;;10.45;3.72;;;;;;;15.77;89.15;99836.09;4991663;28;20499;-76
2023/09/21 05:37:34;;;;;;;5.63;3.35;;;;;;;15.79;89.31;99836.78;4979666;28;20136;-79
2023/09/21 05:40:06;;;;;;;9.73;4.00;;;;;;;15.85;88.77;99832.72;4993923;28;20046;-74
2023/09/21 05:42:35;;;;;;;8.05;3.70;;;;;;;15.87;88.42;99830.78;5023300;28;20093;-76
2023/09/21 05:45:03;;;;;;;7.90;3.33;;;;;;;15.93;88.33;99838.97;4989723;28;20647;-74
2023/09/21 05:47:32;;;;;;;7.85;3.30;;;;;;;15.98;88.26;99830.59;5006179;28;20073;-78
2023/09/21 05:50:00;;;;;;;8.52;4.20;;;;;;;16.01;87.80;99826.81;5021859;28;20099;-78
2023/09/21 05:52:30;;;;;;;33.50;3.70;;;;;;;16.05;87.66;99823.72;5006388;28;20140;-82
2023/09/21 05:54:57;;;;;;;7.63;3.70;;;;;;;16.11;87.28;99823.13;5010879;28;20069;-77
2023/09/21 05:57:25;;;;;;;7.18;3.35;;;;;;;16.18;86.91;99829.56;4985155;28;20061;-76
2023/09/21 05:59:53;;;;;;;11.68;4.07;;;;;;;16.24;86.47;99829.94;4984726;28;20157;-77
2023/09/21 06:02:21;;;;;;;6.10;3.70;;;;;;;16.28;86.29;99829.50;4987087;28;20057;-75
2023/09/21 06:04:48;;;;;;;6.20;4.00;;;;;;;16.24;86.74;99836.09;5002953;28;20053;-75
2023/09/21 06:07:16;;;;;;;7.28;3.83;;;;;;;16.23;86.79;99834.41;4985241;28;20046;-74
2023/09/21 06:09:48;;;;;;;6.22;3.65;;;;;;;16.20;86.62;99830.22;5015584;28;20452;-79
2023/09/21 06:12:15;;;;;;;7.40;3.55;;;;;;;16.16;86.54;99831.50;4990298;28;20115;-74
2023/09/21 06:14:42;;;;;;;11.02;4.20;;;;;;;16.14;86.98;99832.63;5001015;28;20092;-76
2023/09/21 06:17:13;;;;;;;7.95;3.45;;;;;;;16.11;87.41;99830.25;5016959;28;20045;-77
2023/09/21 06:22:58;;;;;;;8.13;3.47;;;;;;;16.05;87.85;99818.41;5016029;28;20119;-74
2023/09/21 06:25:26;;;;;;;5.20;3.47;;;;;;;16.03;88.09;99828.34;5010659;28;20041;-76
2023/09/21 06:27:56;;;;;;;10.98;3.72;;;;;;;16.03;88.66;99823.06;4994195;28;20522;-77
2023/09/21 06:30:23;;;;;;;9.98;4.80;;;;;;;16.08;88.44;99819.97;5009478;28;20077;-75
2023/09/21 06:32:51;;;;;;;15.35;3.75;;;;;;;16.20;88.07;99827.56;5005221;28;20075;-74
2023/09/21 06:35:19;;;;;;;15.23;3.67;;;;;;;16.34;87.51;99817.44;5004236;28;20103;-75
2023/09/21 06:37:48;;;;;;;9.02;3.85;;;;;;;16.39;86.97;99820.50;5007079;28;20131;-74
2023/09/21 06:40:15;;;;;;;5.45;3.22;;;;;;;16.39;87.01;99820.50;5008377;28;20497;-79
2023/09/21 06:42:42;;;;;;;13.10;4.32;;;;;;;16.42;86.87;99821.03;5010702;28;20061;-77
2023/09/21 06:45:10;;;;;;;11.30;4.30;;;;;;;16.48;87.06;99817.00;5008682;28;20100;-78
2023/09/21 06:47:38;;;;;;;8.63;3.63;;;;;;;16.67;85.52;99811.56;5010745;28;20072;-78
2023/09/21 06:50:10;;;;;;;12.07;3.83;;;;;;;16.84;85.00;99817.91;4992187;28;20085;-78
2023/09/21 06:52:38;;;;;;;11.35;3.63;;;;;;;17.01;83.66;99813.56;5025457;28;20537;-77
2023/09/21 06:55:05;;;;;;;7.78;3.53;;;;;;;17.20;82.95;99816.09;5028775;28;20492;-79
2023/09/21 06:57:34;;;;;;;10.52;3.47;;;;;;;17.34;82.00;99813.91;5023677;28;20124;-79
2023/09/21 07:00:02;;;;;;;9.77;3.78;;;;;;;17.48;81.15;99813.34;4996834;28;20124;-84
2023/09/21 07:02:30;;;;;;;7.82;3.55;;;;;;;17.61;80.60;99820.94;5010051;28;20053;-75
2023/09/21 07:04:57;;;;;;;10.60;3.55;;;;;;;17.75;79.71;99806.25;5007604;28;20049;-76
2023/09/21 07:07:25;;;;;;;14.05;4.30;;;;;;;17.87;79.49;99811.13;5007269;28;20094;-75
2023/09/21 07:09:54;;;;;;;7.40;3.55;;;;;;;18.04;78.42;99806.75;5008982;28;20570;-75
2023/09/21 07:12:24;;;;;;;10.13;3.50;;;;;;;18.19;77.65;99809.63;5006171;28;20142;-74
2023/09/21 07:14:52;;;;;;;12.60;3.75;;;;;;;18.31;76.96;99796.88;5005138;28;20551;-77
2023/09/21 07:17:19;;;;;;;6.30;3.72;;;;;;;18.43;75.99;99798.25;5007795;28;20433;-75
2023/09/21 07:19:47;;;;;;;10.57;3.67;;;;;;;18.53;76.06;99806.13;5007292;28;20589;-75
2023/09/21 07:22:14;;;;;;;6.95;3.28;;;;;;;18.62;75.36;99797.16;5020428;28;20179;-74
2023/09/21 07:24:42;;;;;;;9.27;3.00;;;;;;;18.76;74.74;99796.56;5001550;28;20217;-75
2023/09/21 07:27:09;;;;;;;8.13;3.30;;;;;;;18.89;74.53;99804.09;5021649;28;20038;-76
2023/09/21 07:29:36;;;;;;;9.27;3.30;;;;;;;19.03;73.39;99799.94;5009616;28;20050;-76
2023/09/21 07:32:04;;;;;;;12.20;3.08;;;;;;;19.05;73.06;99803.25;5010984;28;20077;-75
2023/09/21 07:34:34;;;;;;;8.63;3.55;;;;;;;19.20;72.41;99806.97;5009368;28;20400;-76
2023/09/21 07:37:02;;;;;;;8.00;3.13;;;;;;;19.32;72.16;99800.31;5023252;28;20074;-87
2023/09/21 07:39:30;;;;;;;7.25;3.75;;;;;;;19.41;71.51;99806.47;5024675;28;20046;-77
2023/09/21 07:41:57;;;;;;;4.40;2.80;;;;;;;19.51;71.44;99801.78;5005693;28;20133;-76
2023/09/21 07:44:25;;;;;;;9.85;2.88;;;;;;;19.59;70.82;99804.47;5009300;28;20049;-76
2023/09/21 07:46:52;;;;;;;5.72;2.92;;;;;;;19.73;70.58;99805.63;5010364;28;20046;-76
2023/09/21 07:49:20;;;;;;;8.80;3.17;;;;;;;19.94;70.20;99789.03;5009335;28;20073;-75
2023/09/21 07:51:48;;;;;;;7.47;3.25;;;;;;;20.14;69.16;99795.69;4993187;28;20076;-76
2023/09/21 07:54:16;;;;;;;8.00;3.30;;;;;;;20.26;68.38;99797.97;5003029;28;20054;-75
2023/09/21 07:56:45;;;;;;;11.38;2.85;;;;;;;20.21;68.38;99801.97;5007730;28;22163;-75
2023/09/21 07:59:12;;;;;;;5.70;2.78;;;;;;;20.18;68.49;99788.16;4990228;28;20140;-76
2023/09/21 08:01:40;;;;;;;4.65;2.75;;;;;;;20.31;68.46;99790.25;5007793;28;20144;-75
2023/09/21 08:04:08;;;;;;;9.07;2.92;;;;;;;20.45;67.82;99785.03;4993003;28;20528;-75
2023/09/21 08:06:35;;;;;;;11.68;4.18;;;;;;;20.64;67.75;99781.13;5008144;28;20095;-75
2023/09/21 08:09:03;;;;;;;7.80;2.80;;;;;;;20.82;66.88;99780.84;4991575;28;20054;-76
2023/09/21 08:11:41;;;;;;;7.43;2.67;;;;;;;20.99;66.19;99777.03;5009952;28;20142;-75
2023/09/21 08:14:09;;;;;;;6.25;2.50;;;;;;;21.07;65.45;99775.31;4995012;28;20050;-75
2023/09/21 08:16:37;;;;;;;5.13;2.38;;;;;;;21.06;65.06;99781.69;4988153;28;20052;-75
2023/09/21 08:19:06;;;;;;;3.97;2.75;;;;;;;21.07;65.19;99776.13;5015721;28;20058;-74
2023/09/21 08:21:33;;;;;;;6.60;2.78;;;;;;;21.16;65.04;99775.09;5023404;28;20588;-75
2023/09/21 08:24:01;;;;;;;3.92;2.25;;;;;;;21.08;64.84;99771.63;5009331;28;20077;-76
2023/09/21 08:26:28;;;;;;;5.65;2.33;;;;;;;21.27;64.73;99779.16;5024003;28;20052;-75
2023/09/21 08:28:58;;;;;;;6.35;2.67;;;;;;;21.40;64.28;99773.25;5007763;28;20085;-75
2023/09/21 08:31:25;;;;;;;4.25;2.28;;;;;;;21.40;63.66;99778.59;5002968;28;20773;-74
2023/09/21 08:33:53;;;;;;;11.48;2.35;;;;;;;21.48;63.60;99775.84;5021072;28;20057;-76
2023/09/21 08:36:21;;;;;;;7.43;2.50;;;;;;;21.50;63.42;99776.47;5022115;28;20535;-75
2023/09/21 08:38:49;;;;;;;7.55;2.40;;;;;;;21.55;63.33;99774.09;5007340;28;20072;-76
2023/09/21 08:41:16;;;;;;;5.35;2.53;;;;;;;21.66;63.22;99770.97;5025526;28;20068;-75
2023/09/21 08:43:44;;;;;;;7.15;2.60;;;;;;;21.82;63.10;99778.00;5017507;28;20058;-76
2023/09/21 08:46:13;;;;;;;4.38;2.22;;;;;;;22.04;62.96;99772.75;5018827;28;20046;-75
2023/09/21 08:48:41;;;;;;;7.82;2.80;;;;;;;22.17;61.62;99773.78;5023259;28;20041;-76
2023/09/21 08:51:11;;;;;;;4.68;2.38;;;;;;;22.26;61.71;99768.34;5006399;28;20141;-76
2023/09/21 08:53:39;;;;;;;5.40;2.17;;;;;;;;;;5005920;28;20075;-77
2023/09/21 08:56:07;;;;;;;5.78;2.92;;;;;;;22.48;60.62;99773.56;5021515;28;20467;-76
2023/09/21 08:58:38;;;;;;;3.80;2.15;;;;;;;22.53;60.43;99772.16;5021371;28;20050;-76
2023/09/21 09:01:05;;;;;;;9.18;3.05;;;;;;;22.56;59.81;99769.94;5023281;28;20115;-76
2023/09/21 09:03:33;;;;;;;10.48;2.20;;;;;;;22.71;60.29;99767.22;5005866;28;20091;-77
2023/09/21 09:06:01;;;;;;;8.35;2.95;;;;;;;22.83;59.21;99770.22;5001841;28;20087;-74
2023/09/21 09:08:28;;;;;;;9.35;2.10;;;;;;;22.90;59.18;99776.53;5019422;28;20140;-75
2023/09/21 09:10:56;;;;;;;6.90;2.15;;;;;;;22.92;58.83;99769.09;5014784;28;20073;-77
2023/09/21 09:13:33;;;;;;;5.93;2.38;;;;;;;23.14;58.66;99777.97;5021019;28;20049;-76
2023/09/21 09:16:00;;;;;;;4.85;2.20;;;;;;;23.35;58.01;99779.84;5003381;28;20439;-76
2023/09/21 09:18:28;;;;;;;3.15;2.33;;;;;;;23.57;57.85;99780.63;5022625;28;20073;-76
2023/09/21 09:20:55;;;;;;;9.00;2.50;;;;;;;23.64;57.12;99779.69;5006678;28;20045;-76
2023/09/21 09:23:23;;;;;;;5.63;2.40;;;;;;;23.62;57.06;99778.19;5020033;28;20899;-76
2023/09/21 09:25:51;;;;;;;6.28;2.40;;;;;;;23.82;56.75;99781.88;5020153;28;20045;-76
2023/09/21 09:28:18;;;;;;;5.88;2.08;;;;;;;23.91;56.54;99766.41;5007036;28;20050;-78
2023/09/21 09:30:46;;;;;;;7.93;2.45;;;;;;;24.06;55.91;99764.44;5003637;28;20132;-74
2023/09/21 09:33:15;;;;;;;9.00;1.90;;;;;;;24.21;55.63;99761.59;4999818;28;20556;-75
2023/09/21 09:35:45;;;;;;;5.85;2.03;;;;;;;24.45;56.09;99760.28;5003375;28;20064;-75
2023/09/21 09:38:14;;;;;;;6.22;2.30;;;;;;;24.62;54.87;99750.81;4988876;28;20116;-74
2023/09/21 09:40:42;;;;;;;7.68;2.13;;;;;;;24.64;54.32;99754.16;5024222;28;20084;-74
2023/09/21 09:43:12;;;;;;;4.05;1.88;;;;;;;24.64;53.74;99747.94;5025827;28;20439;-75
2023/09/21 09:45:41;;;;;;;8.15;2.20;;;;;;;24.66;54.15;99744.00;5006226;28;20100;-75
2023/09/21 09:48:12;;;;;;;7.32;2.17;;;;;;;24.69;54.06;99738.22;4992497;28;20041;-74
2023/09/21 09:50:45;;;;;;;5.95;1.90;;;;;;;24.79;53.25;99743.22;5022325;28;20594;-75
2023/09/21 09:53:17;;;;;;;4.88;1.85;;;;;;;24.98;53.30;99737.00;5011288;28;20133;-75
2023/09/21 09:55:45;;;;;;;9.07;2.15;;;;;;;25.23;52.26;99731.91;5012932;28;20073;-74
2023/09/21 09:58:13;;;;;;;3.53;2.08;;;;;;;25.42;52.50;99732.09;4996395;28;20355;-75
2023/09/21 10:00:44;;;;;;;4.25;1.90;;;;;;;25.46;51.93;99726.06;4994921;28;20050;-75
2023/09/21 10:03:13;;;;;;;3.33;1.92;;;;;;;25.63;51.43;99739.94;5001913;28;20538;-74
2023/09/21 10:05:42;;;;;;;6.28;2.40;;;;;;;25.81;51.14;99728.53;5024153;28;20053;-75
2023/09/21 10:08:10;;;;;;;6.43;2.00;;;;;;;25.96;50.50;99714.78;5023844;28;20562;-74
2023/09/21 10:10:51;;;;;;;9.27;2.67;;;;;;;25.95;50.11;99715.84;5010807;28;20057;-75
2023/09/21 10:13:19;;;;;;;3.45;1.85;;;;;;;26.11;49.75;99711.81;4996096;28;20099;-74
2023/09/21 10:16:04;;;;;;;6.28;1.67;;;;;;;26.18;48.25;99720.72;5011389;28;20520;-76
2023/09/21 10:18:36;;;;;;;3.05;1.75;;;;;;;26.10;47.89;99719.09;5012235;28;20050;-74
2023/09/21 10:21:13;;;;;;;3.13;1.83;;;;;;;26.09;47.85;99717.44;5008595;28;20057;-73
2023/09/21 10:24:02;;;;;;;3.05;1.70;;;;;;;26.06;47.92;99706.25;5025864;28;20072;-73
2023/09/21 10:26:33;;;;;;;3.30;1.80;;;;;;;26.01;47.63;99709.59;4993772;28;20057;-74
2023/09/21 10:29:04;;;;;;;4.28;1.38;;;;;;;26.16;47.75;99693.13;5006708;28;20137;-75
2023/09/21 10:31:56;;;;;;;3.03;1.75;;;;;;;26.36;47.03;99695.75;5008870;28;20084;-75
2023/09/21 10:34:26;;;;;;;3.83;1.52;;;;;;;26.45;47.15;99689.09;5028329;28;20092;-75
2023/09/21 10:37:10;;;;;;;4.20;1.50;;;;;;;26.56;46.18;99685.69;5023927;28;20084;-74
2023/09/21 10:39:39;;;;;;;2.63;1.40;;;;;;;26.55;46.06;99684.03;5011499;28;20045;-75
2023/09/21 10:42:07;;;;;;;6.25;1.80;;;;;;;26.63;45.63;99680.25;5012028;28;20371;-74
2023/09/21 10:44:53;;;;;;;2.83;1.83;;;;;;;26.79;44.98;99678.88;5011332;28;20161;-75
2023/09/21 10:47:30;;;;;;;5.97;2.47;;;;;;;26.91;44.37;99671.72;5012386;28;20136;-76
2023/09/21 10:50:03;;;;;;;2.45;1.88;;;;;;;26.94;44.40;99676.69;5016808;28;20045;-74
2023/09/21 10:52:31;;;;;;;3.92;1.77;;;;;;;26.92;44.61;99678.78;4990824;28;20111;-76
2023/09/21 10:54:59;;;;;;;5.05;1.83;;;;;;;27.02;44.30;99674.56;5021152;28;20126;-74
2023/09/21 10:57:28;;;;;;;3.78;2.03;;;;;;;27.14;44.75;99680.06;5009133;28;20548;-75
2023/09/21 10:59:59;;;;;;;5.10;1.45;;;;;;;27.32;43.94;99676.59;5026163;28;20146;-74
2023/09/21 11:02:38;;;;;;;7.55;1.70;;;;;;;27.34;43.73;99679.09;4997775;28;20053;-76
2023/09/21 11:05:10;;;;;;;5.07;1.92;;;;;;;27.46;44.10;99670.00;5009783;28;20064;-75
2023/09/21 11:07:40;;;;;;;4.30;1.83;;;;;;;27.35;44.28;99657.25;5025977;28;20084;-75
2023/09/21 11:10:11;;;;;;;4.07;1.80;;;;;;;27.71;43.50;99661.84;5023520;28;20085;-75
2023/09/21 11:12:40;;;;;;;4.68;1.80;;;;;;;28.10;43.50;99658.88;5024659;28;20076;-74
2023/09/21 11:15:09;;;;;;;3.88;1.55;;;;;;;27.99;42.22;99658.59;5008865;28;20664;-75
2023/09/21 11:17:36;;;;;;;2.75;1.60;;;;;;;28.18;42.36;99653.97;5010058;28;20084;-74
2023/09/21 11:20:05;;;;;;;3.03;1.98;;;;;;;28.41;41.58;99657.88;5005719;28;21263;-75
2023/09/21 11:22:33;;;;;;;4.05;1.65;;;;;;;28.54;41.44;99657.66;5009224;28;20045;-74
2023/09/21 11:25:01;;;;;;;2.92;1.95;;;;;;;28.74;41.02;99655.50;5023665;28;20178;-75
2023/09/21 11:27:28;;;;;;;4.07;1.60;;;;;;;28.89;40.94;99655.03;5010794;28;20046;-75
2023/09/21 11:29:56;;;;;;;5.03;1.67;;;;;;;28.99;39.89;99657.19;4992151;28;20056;-74
2023/09/21 11:32:24;;;;;;;5.13;2.35;;;;;;;28.90;39.87;99642.31;5029907;28;20049;-75
2023/09/21 11:35:02;;;;;;;2.75;1.70;;;;;;;29.17;40.00;99640.00;5027073;28;20427;-74
2023/09/21 11:37:30;;;;;;;4.18;1.52;;;;;;;29.31;39.25;99641.41;5007204;28;20139;-74
2023/09/21 11:39:58;;;;;;;4.43;1.63;;;;;;;29.25;39.17;99637.75;5028975;28;20045;-73
2023/09/21 11:42:25;;;;;;;5.88;2.22;;;;;;;29.27;38.95;99638.38;5009834;28;20045;-74
2023/09/21 11:44:53;;;;;;;6.07;1.85;;;;;;;29.62;38.67;99631.25;5005360;28;20099;-74